Time;durP1;ratioP1;P1;durP2;ratioP2;P2;SDS_P1;SDS_P2;PMS_P1;PMS_P2;Temp;Humidity;BMP_temperature;BMP_pressure;BME280_temperature;BME280_humidity;BME280_pressure;Samples;Min_cycle;Max_cycle;Signal;HPM_P1;HPM_P2
2022/08/03 00:02:08;;;;;;;3.20;3.10;;;;;;;;;;5143201;27;20427;-69
2022/08/03 00:04:34;;;;;;;3.42;3.20;;;;;;;;;;5143138;28;20513;-69
2022/08/03 00:07:01;;;;;;;5.72;3.17;;;;;;;;;;5142853;28;20255;-69
2022/08/03 00:09:29;;;;;;;4.93;3.28;;;;;;;;;;5145198;27;20191;-69
2022/08/03 00:11:56;;;;;;;4.22;3.13;;;;;;;;;;5147258;27;20222;-69
2022/08/03 00:14:22;;;;;;;5.07;3.70;;;;;;;;;;5147136;27;20251;-69
2022/08/03 00:16:48;;;;;;;3.38;3.17;;;;;;;;;;5146951;27;20198;-69
2022/08/03 00:19:14;;;;;;;4.40;3.10;;;;;;;;;;5147138;27;20195;-69
2022/08/03 00:21:41;;;;;;;3.78;3.60;;;;;;;;;;5146812;27;20216;-69
2022/08/03 00:24:07;;;;;;;3.47;3.28;;;;;;;;;;5147159;27;20186;-69
2022/08/03 00:26:35;;;;;;;4.20;3.50;;;;;;;;;;5146810;27;20198;-69
2022/08/03 00:29:01;;;;;;;3.63;3.42;;;;;;;;;;5146853;27;20198;-69
2022/08/03 00:31:27;;;;;;;3.40;3.10;;;;;;;;;;5146753;27;20201;-69
2022/08/03 00:33:53;;;;;;;3.97;3.00;;;;;;;;;;5146738;27;20649;-69
2022/08/03 00:36:20;;;;;;;3.20;3.00;;;;;;;;;;5146485;27;20194;-69
2022/08/03 00:38:46;;;;;;;3.10;2.92;;;;;;;;;;5146866;27;20502;-69
2022/08/03 00:41:12;;;;;;;3.40;3.10;;;;;;;;;;5146673;27;20364;-69
2022/08/03 00:43:40;;;;;;;3.47;3.17;;;;;;;;;;5146713;27;20198;-69
2022/08/03 00:46:06;;;;;;;3.83;3.58;;;;;;;;;;5146499;27;20194;-69
2022/08/03 00:48:32;;;;;;;3.25;3.10;;;;;;;;;;5146397;27;20504;-69
2022/08/03 00:50:59;;;;;;;3.35;3.13;;;;;;;;;;5146648;27;20194;-69
2022/08/03 00:53:25;;;;;;;3.03;2.85;;;;;;;;;;5146421;27;20206;-69
2022/08/03 00:55:51;;;;;;;3.78;3.40;;;;;;;;;;5146269;27;20541;-69
2022/08/03 00:58:17;;;;;;;3.17;3.05;;;;;;;;;;5146020;27;20198;-69
2022/08/03 01:00:45;;;;;;;3.28;3.17;;;;;;;;;;5146251;27;20494;-69
2022/08/03 01:03:11;;;;;;;3.25;3.00;;;;;;;;;;5146666;27;20403;-69
2022/08/03 01:05:40;;;;;;;3.97;3.30;;;;;;;;;;5145745;27;20214;-69
2022/08/03 01:08:11;;;;;;;3.70;3.15;;;;;;;;;;5145828;27;20200;-69
2022/08/03 01:10:41;;;;;;;3.63;3.00;;;;;;;;;;5145996;27;20187;-69
2022/08/03 01:13:15;;;;;;;3.35;3.25;;;;;;;;;;5145915;27;20223;-69
2022/08/03 01:15:43;;;;;;;3.30;3.05;;;;;;;;;;5146171;27;20214;-69
2022/08/03 01:18:14;;;;;;;5.05;3.20;;;;;;;;;;5145692;27;20423;-69
2022/08/03 01:20:43;;;;;;;3.70;2.80;;;;;;;;;;5144693;27;20198;-69
2022/08/03 01:23:14;;;;;;;3.15;2.95;;;;;;;;;;5145796;27;20200;-69
2022/08/03 01:25:49;;;;;;;3.15;3.00;;;;;;;;;;5145692;27;20221;-69
2022/08/03 01:28:34;;;;;;;3.75;3.60;;;;;;;;;;5145654;27;20247;-68
2022/08/03 01:31:04;;;;;;;5.72;3.28;;;;;;;;;;5145844;27;20198;-68
2022/08/03 01:33:33;;;;;;;3.15;2.90;;;;;;;;;;5145603;27;20194;-68
2022/08/03 01:36:00;;;;;;;3.40;3.10;;;;;;;;;;5145112;27;20218;-68
2022/08/03 01:38:28;;;;;;;2.92;2.83;;;;;;;;;;5145623;27;20516;-68
2022/08/03 01:40:55;;;;;;;2.90;2.67;;;;;;;;;;5145671;27;20194;-68
2022/08/03 01:43:26;;;;;;;4.22;2.85;;;;;;;;;;5145563;27;20202;-68
2022/08/03 01:45:54;;;;;;;3.40;3.20;;;;;;;;;;5145411;27;20190;-68
2022/08/03 01:48:22;;;;;;;3.10;2.90;;;;;;;;;;5145035;27;20199;-68
2022/08/03 01:50:48;;;;;;;3.45;3.25;;;;;;;;;;5145458;27;20194;-68
2022/08/03 01:53:15;;;;;;;3.33;3.22;;;;;;;;;;5145295;27;20506;-68
2022/08/03 01:55:43;;;;;;;3.30;3.20;;;;;;;;;;5145161;27;20285;-68
2022/08/03 01:58:09;;;;;;;2.97;2.88;;;;;;;;;;5144818;27;20206;-68
2022/08/03 02:00:37;;;;;;;3.53;3.35;;;;;;;;;;5145042;27;20202;-68
2022/08/03 02:03:05;;;;;;;3.47;3.28;;;;;;;;;;5144979;27;20199;-68
2022/08/03 02:05:34;;;;;;;3.33;3.08;;;;;;;;;;5145016;27;20247;-68
2022/08/03 02:08:00;;;;;;;5.28;3.10;;;;;;;;;;5144782;27;20195;-68
2022/08/03 02:10:27;;;;;;;3.60;3.30;;;;;;;;;;5144822;27;20265;-68
2022/08/03 02:12:54;;;;;;;3.70;3.40;;;;;;;;;;5144974;27;20514;-68
2022/08/03 02:15:21;;;;;;;3.50;3.20;;;;;;;;;;5144714;27;20219;-69
2022/08/03 02:17:48;;;;;;;3.22;3.05;;;;;;;;;;5144612;27;20224;-69
2022/08/03 02:20:15;;;;;;;3.28;3.17;;;;;;;;;;5144816;27;20194;-69
2022/08/03 02:22:43;;;;;;;3.30;3.10;;;;;;;;;;5144696;27;20434;-69
2022/08/03 02:25:10;;;;;;;4.22;3.60;;;;;;;;;;5144612;27;20482;-69
2022/08/03 02:27:38;;;;;;;3.75;3.45;;;;;;;;;;5144404;27;20206;-68
2022/08/03 02:30:07;;;;;;;3.35;3.15;;;;;;;;;;5144355;27;20202;-68
2022/08/03 02:32:35;;;;;;;3.25;3.08;;;;;;;;;;5144120;27;20498;-68
2022/08/03 02:35:03;;;;;;;3.50;3.30;;;;;;;;;;5144517;27;20225;-68
2022/08/03 02:37:32;;;;;;;4.88;3.53;;;;;;;;;;5144652;27;20195;-68
2022/08/03 02:40:01;;;;;;;3.47;3.17;;;;;;;;;;5144360;27;20202;-68
2022/08/03 02:42:29;;;;;;;3.53;3.30;;;;;;;;;;5144110;27;20210;-68
2022/08/03 02:44:57;;;;;;;5.35;3.20;;;;;;;;;;5144210;27;20232;-68
2022/08/03 02:47:23;;;;;;;4.78;3.47;;;;;;;;;;5144047;27;20202;-68
2022/08/03 02:49:50;;;;;;;3.42;3.33;;;;;;;;;;5144109;27;20216;-68
2022/08/03 02:52:17;;;;;;;3.83;3.53;;;;;;;;;;5144032;27;20265;-68
2022/08/03 02:54:44;;;;;;;3.80;3.40;;;;;;;;;;5143721;27;20549;-68
2022/08/03 02:57:12;;;;;;;3.42;3.33;;;;;;;;;;5143637;27;20198;-68
2022/08/03 02:59:40;;;;;;;5.90;3.60;;;;;;;;;;5143864;27;20209;-68
2022/08/03 03:02:06;;;;;;;4.40;3.20;;;;;;;;;;5143855;27;20201;-68
2022/08/03 03:04:33;;;;;;;3.65;3.40;;;;;;;;;;5144012;27;20206;-68
2022/08/03 03:07:00;;;;;;;3.88;3.03;;;;;;;;;;5143521;27;20201;-68
2022/08/03 03:09:26;;;;;;;3.22;3.05;;;;;;;;;;5143753;27;20194;-68
2022/08/03 03:11:53;;;;;;;3.38;3.17;;;;;;;;;;5143669;27;20209;-68
2022/08/03 03:14:21;;;;;;;3.40;3.20;;;;;;;;;;5143798;27;20420;-68
2022/08/03 03:16:48;;;;;;;3.13;3.03;;;;;;;;;;5143397;27;20198;-68
2022/08/03 03:19:15;;;;;;;3.53;3.13;;;;;;;;;;5143502;27;20194;-68
2022/08/03 03:21:42;;;;;;;4.03;3.22;;;;;;;;;;5143648;27;20425;-68
2022/08/03 03:24:09;;;;;;;4.93;3.67;;;;;;;;;;5143506;27;20399;-68
2022/08/03 03:26:35;;;;;;;3.47;3.10;;;;;;;;;;5143286;27;20204;-68
2022/08/03 03:29:02;;;;;;;5.82;3.42;;;;;;;;;;5143486;27;20220;-68
2022/08/03 03:31:29;;;;;;;6.13;3.50;;;;;;;;;;5143506;27;20269;-68
2022/08/03 03:33:57;;;;;;;3.53;3.17;;;;;;;;;;5143419;27;20194;-68
2022/08/03 03:36:23;;;;;;;5.18;3.13;;;;;;;;;;5143203;27;20220;-68
2022/08/03 03:38:50;;;;;;;3.28;2.97;;;;;;;;;;5143249;28;20536;-68
2022/08/03 03:41:16;;;;;;;4.75;3.30;;;;;;;;;;5143434;28;20198;-68
2022/08/03 03:43:42;;;;;;;3.67;3.40;;;;;;;;;;5144105;27;20194;-68
2022/08/03 03:46:11;;;;;;;3.38;3.17;;;;;;;;;;5147575;27;20204;-68
2022/08/03 03:48:39;;;;;;;4.45;3.53;;;;;;;;;;5147659;27;20225;-68
2022/08/03 03:51:06;;;;;;;4.57;3.40;;;;;;;;;;5147623;27;20498;-68
2022/08/03 03:53:33;;;;;;;3.83;3.22;;;;;;;;;;5147429;27;20537;-68
2022/08/03 03:55:59;;;;;;;4.03;3.67;;;;;;;;;;5147316;27;20213;-68
2022/08/03 03:58:25;;;;;;;4.00;3.63;;;;;;;;;;5147515;27;20200;-68
2022/08/03 04:00:52;;;;;;;3.92;3.58;;;;;;;;;;5147582;27;20455;-68
2022/08/03 04:03:19;;;;;;;4.75;3.80;;;;;;;;;;5147272;27;20239;-69
2022/08/03 04:11:16;;;;;;;5.03;3.58;;;;;;;;;;5147342;27;20247;-68
2022/08/03 04:13:44;;;;;;;4.15;3.60;;;;;;;;;;5147280;27;20202;-68
2022/08/03 04:16:12;;;;;;;4.93;3.80;;;;;;;;;;5146906;27;20219;-68
2022/08/03 04:18:40;;;;;;;3.80;3.40;;;;;;;;;;5147219;27;20427;-68
2022/08/03 04:21:09;;;;;;;3.95;3.70;;;;;;;;;;5146908;27;20202;-68
2022/08/03 04:23:37;;;;;;;3.80;3.50;;;;;;;;;;5147327;27;20201;-69
2022/08/03 04:26:06;;;;;;;3.67;3.50;;;;;;;;;;5146896;27;20191;-68
2022/08/03 04:28:33;;;;;;;5.63;3.55;;;;;;;;;;5146928;27;20267;-68
2022/08/03 04:31:01;;;;;;;5.93;3.67;;;;;;;;;;5146670;27;20219;-68
2022/08/03 04:33:28;;;;;;;3.47;3.28;;;;;;;;;;5146942;27;20194;-68
2022/08/03 04:35:57;;;;;;;5.60;3.55;;;;;;;;;;5146696;27;20556;-68
2022/08/03 04:38:25;;;;;;;4.30;4.00;;;;;;;;;;5146701;27;20200;-68
2022/08/03 04:40:52;;;;;;;5.45;3.85;;;;;;;;;;5146662;27;20206;-68
2022/08/03 04:43:20;;;;;;;4.28;3.97;;;;;;;;;;5146488;27;20239;-68
2022/08/03 04:45:47;;;;;;;4.55;4.28;;;;;;;;;;5146782;27;20197;-68
2022/08/03 04:48:15;;;;;;;4.05;3.75;;;;;;;;;;5146434;27;20198;-68
2022/08/03 04:50:41;;;;;;;4.22;3.83;;;;;;;;;;5146554;27;20217;-68
2022/08/03 04:53:07;;;;;;;4.15;3.70;;;;;;;;;;5146502;27;20202;-68
2022/08/03 04:55:35;;;;;;;5.00;4.10;;;;;;;;;;5146068;27;20218;-68
2022/08/03 04:58:03;;;;;;;5.15;4.03;;;;;;;;;;5145961;27;20239;-67
2022/08/03 05:00:29;;;;;;;3.72;3.53;;;;;;;;;;5146335;27;20195;-68
2022/08/03 05:02:55;;;;;;;4.88;4.07;;;;;;;;;;5146367;27;20194;-68
2022/08/03 05:05:22;;;;;;;4.55;4.20;;;;;;;;;;5146165;27;20550;-68
2022/08/03 05:07:48;;;;;;;3.85;3.55;;;;;;;;;;5145792;27;20214;-68
2022/08/03 05:10:15;;;;;;;5.10;3.90;;;;;;;;;;5146047;27;20366;-68
2022/08/03 05:12:43;;;;;;;4.32;3.92;;;;;;;;;;5145511;27;20194;-68
2022/08/03 05:15:10;;;;;;;4.28;3.88;;;;;;;;;;5145420;27;20410;-68
2022/08/03 05:17:36;;;;;;;3.90;3.70;;;;;;;;;;5145083;27;20337;-68
2022/08/03 05:20:03;;;;;;;3.80;3.60;;;;;;;;;;5145411;27;20217;-68
2022/08/03 05:22:30;;;;;;;4.57;4.18;;;;;;;;;;5144994;27;20237;-67
2022/08/03 05:24:56;;;;;;;4.03;3.60;;;;;;;;;;5041805;27;20217;-69
2022/08/03 05:27:22;;;;;;;5.20;3.70;;;;;;;;;;5033694;28;20214;-61
2022/08/03 05:29:50;;;;;;;3.92;3.80;;;;;;;;;;5065927;27;20226;-61
2022/08/03 05:32:17;;;;;;;3.78;3.47;;;;;;;;;;5139067;27;20540;-60
2022/08/03 05:34:43;;;;;;;5.18;4.07;;;;;;;;;;5075134;27;20446;-61
2022/08/03 05:37:09;;;;;;;4.55;4.18;;;;;;;;;;5032694;28;20610;-62
2022/08/03 05:39:36;;;;;;;5.18;4.85;;;;;;;;;;5025609;28;20247;-62
2022/08/03 05:42:03;;;;;;;4.97;4.57;;;;;;;;;;5053294;27;20207;-61
2022/08/03 05:44:30;;;;;;;5.22;4.35;;;;;;;;;;5032947;28;20213;-60
2022/08/03 05:46:58;;;;;;;4.95;4.47;;;;;;;;;;5033167;28;20237;-59
2022/08/03 05:49:24;;;;;;;4.78;4.18;;;;;;;;;;5033614;28;20395;-61
2022/08/03 05:51:50;;;;;;;5.15;4.68;;;;;;;;;;5031103;28;20221;-60
2022/08/03 05:54:16;;;;;;;7.40;4.80;;;;;;;;;;5032460;28;20225;-60
2022/08/03 05:56:43;;;;;;;4.85;4.45;;;;;;;;;;5032830;28;20229;-60
2022/08/03 05:59:09;;;;;;;5.00;4.60;;;;;;;;;;5032693;28;20270;-61
2022/08/03 06:01:35;;;;;;;5.88;4.18;;;;;;;;;;5032672;28;20214;-61
2022/08/03 06:04:03;;;;;;;5.75;3.97;;;;;;;;;;5032248;28;20221;-61
2022/08/03 06:06:29;;;;;;;4.57;4.28;;;;;;;;;;5031322;28;20225;-60
2022/08/03 06:08:55;;;;;;;4.32;3.92;;;;;;;;;;5032622;28;20225;-60
2022/08/03 06:11:22;;;;;;;4.28;3.97;;;;;;;;;;5032635;28;20520;-61
2022/08/03 06:13:48;;;;;;;4.75;3.85;;;;;;;;;;5032856;28;20417;-60
2022/08/03 06:16:14;;;;;;;5.18;4.10;;;;;;;;;;5031471;28;20467;-60
2022/08/03 06:18:40;;;;;;;6.93;4.53;;;;;;;;;;5032306;28;20387;-61
2022/08/03 06:21:09;;;;;;;4.53;3.90;;;;;;;;;;5045792;27;20254;-60
2022/08/03 06:23:35;;;;;;;5.38;4.07;;;;;;;;;;5031578;28;20568;-60
2022/08/03 06:26:02;;;;;;;4.53;4.20;;;;;;;;;;5032037;28;20210;-61
2022/08/03 06:28:28;;;;;;;5.18;3.95;;;;;;;;;;5032369;28;20213;-61
2022/08/03 06:30:55;;;;;;;5.43;3.83;;;;;;;;;;5030336;28;20217;-61
2022/08/03 06:33:21;;;;;;;6.18;4.60;;;;;;;;;;5031662;28;20218;-61
2022/08/03 06:35:47;;;;;;;4.28;3.97;;;;;;;;;;5032158;28;20278;-62
2022/08/03 06:38:15;;;;;;;4.72;4.10;;;;;;;;;;5032522;28;20525;-61
2022/08/03 06:40:41;;;;;;;5.93;4.10;;;;;;;;;;5028757;28;20421;-60
2022/08/03 06:43:08;;;;;;;4.28;3.92;;;;;;;;;;5031451;28;20213;-61
2022/08/03 06:45:35;;;;;;;4.75;4.30;;;;;;;;;;5031195;28;20217;-60
2022/08/03 06:48:02;;;;;;;9.23;3.92;;;;;;;;;;5033384;27;20209;-61
2022/08/03 06:50:28;;;;;;;4.70;4.30;;;;;;;;;;5031526;28;20214;-61
2022/08/03 06:52:55;;;;;;;6.35;4.30;;;;;;;;;;5031649;28;20226;-61
2022/08/03 06:55:22;;;;;;;6.88;4.65;;;;;;;;;;5031287;28;20224;-61
2022/08/03 06:57:48;;;;;;;5.18;4.30;;;;;;;;;;5032668;27;20271;-61
2022/08/03 07:00:15;;;;;;;4.30;3.90;;;;;;;;;;5031585;28;20218;-60
2022/08/03 07:02:41;;;;;;;4.30;4.00;;;;;;;;;;5031509;28;20224;-62
2022/08/03 07:05:08;;;;;;;7.72;4.20;;;;;;;;;;5030784;28;20601;-61
2022/08/03 07:07:35;;;;;;;9.35;4.18;;;;;;;;;;5030915;28;20213;-61
2022/08/03 07:10:01;;;;;;;4.50;4.10;;;;;;;;;;5030995;28;20254;-61
2022/08/03 07:12:29;;;;;;;4.93;4.03;;;;;;;;;;5030694;28;20543;-60
2022/08/03 07:14:56;;;;;;;6.10;3.97;;;;;;;;;;5031016;28;20289;-60
2022/08/03 07:17:23;;;;;;;4.72;4.32;;;;;;;;;;5030450;28;20242;-61
2022/08/03 07:19:49;;;;;;;9.55;4.60;;;;;;;;;;5031203;28;20209;-61
2022/08/03 07:22:15;;;;;;;5.43;4.15;;;;;;;;;;5031480;28;20220;-61
2022/08/03 07:24:41;;;;;;;5.13;4.18;;;;;;;;;;5030926;28;20213;-62
2022/08/03 07:27:08;;;;;;;10.30;4.60;;;;;;;;;;5031271;28;20474;-62
2022/08/03 07:29:36;;;;;;;4.18;3.88;;;;;;;;;;5032365;28;20218;-61
2022/08/03 07:32:02;;;;;;;4.40;4.03;;;;;;;;;;5031012;28;20217;-61
2022/08/03 07:34:28;;;;;;;3.95;3.72;;;;;;;;;;5030483;28;20209;-62
2022/08/03 07:36:55;;;;;;;8.10;4.35;;;;;;;;;;5030016;28;20233;-61
2022/08/03 07:39:21;;;;;;;4.40;4.10;;;;;;;;;;5030775;28;20220;-60
2022/08/03 07:41:50;;;;;;;4.78;4.22;;;;;;;;;;5030748;28;20241;-61
2022/08/03 07:44:16;;;;;;;4.75;4.25;;;;;;;;;;5030314;28;20308;-62
2022/08/03 07:46:44;;;;;;;5.47;3.70;;;;;;;;;;5030263;28;20525;-61
2022/08/03 07:49:10;;;;;;;4.45;3.70;;;;;;;;;;5030919;28;20224;-61
2022/08/03 07:51:36;;;;;;;4.28;3.97;;;;;;;;;;5031036;28;20220;-62
2022/08/03 07:54:03;;;;;;;4.32;3.72;;;;;;;;;;5029852;28;20228;-60
2022/08/03 07:56:29;;;;;;;4.00;3.70;;;;;;;;;;5030067;28;20233;-61
2022/08/03 07:58:56;;;;;;;4.70;3.92;;;;;;;;;;5030530;28;20569;-61
2022/08/03 08:01:22;;;;;;;5.20;4.70;;;;;;;;;;5030668;28;20209;-61
2022/08/03 08:03:50;;;;;;;3.25;3.05;;;;;;;;;;5030271;28;20459;-61
2022/08/03 08:06:17;;;;;;;3.92;3.22;;;;;;;;;;5030413;28;20568;-61
2022/08/03 08:08:43;;;;;;;3.00;2.70;;;;;;;;;;5044244;28;20205;-61
2022/08/03 08:11:10;;;;;;;3.00;2.80;;;;;;;;;;5030931;28;20220;-61
2022/08/03 08:13:37;;;;;;;3.53;3.22;;;;;;;;;;5030603;28;20217;-61
2022/08/03 08:16:03;;;;;;;6.80;3.58;;;;;;;;;;5030365;28;20284;-61
2022/08/03 08:18:30;;;;;;;4.18;2.95;;;;;;;;;;5050064;28;20506;-62
2022/08/03 08:21:00;;;;;;;2.92;2.65;;;;;;;;;;5031073;28;20258;-62
2022/08/03 08:23:26;;;;;;;6.63;3.75;;;;;;;;;;5030652;28;20213;-62
2022/08/03 08:25:53;;;;;;;3.28;3.00;;;;;;;;;;5030774;28;20214;-62
2022/08/03 08:28:20;;;;;;;3.08;2.97;;;;;;;;;;5030407;28;20220;-61
2022/08/03 08:30:47;;;;;;;4.75;3.50;;;;;;;;;;5031786;28;20270;-61
2022/08/03 08:33:13;;;;;;;3.17;3.00;;;;;;;;;;5034516;28;20213;-62
2022/08/03 08:35:39;;;;;;;3.28;2.97;;;;;;;;;;5033510;28;20213;-62
2022/08/03 08:38:07;;;;;;;5.20;2.90;;;;;;;;;;5033026;28;20238;-62
2022/08/03 08:40:33;;;;;;;3.45;2.88;;;;;;;;;;5033346;28;20221;-61
2022/08/03 08:42:59;;;;;;;8.55;3.05;;;;;;;;;;5033018;28;20220;-61
2022/08/03 08:45:26;;;;;;;2.95;2.08;;;;;;;;;;5032680;28;20520;-62
2022/08/03 08:47:54;;;;;;;1.55;1.35;;;;;;;;;;5033400;28;20284;-61
2022/08/03 08:50:21;;;;;;;2.63;2.42;;;;;;;;;;5033108;28;20250;-61
2022/08/03 08:52:48;;;;;;;3.65;2.50;;;;;;;;;;5034306;28;20220;-61
2022/08/03 08:55:19;;;;;;;2.03;1.92;;;;;;;;;;5033685;28;20221;-61
2022/08/03 08:57:48;;;;;;;4.90;2.38;;;;;;;;;;5033347;28;20229;-62
2022/08/03 09:00:14;;;;;;;3.88;2.38;;;;;;;;;;5035681;27;20258;-61
2022/08/03 09:02:42;;;;;;;3.15;2.10;;;;;;;;;;5033209;28;20213;-61
2022/08/03 09:05:10;;;;;;;7.78;2.45;;;;;;;;;;5033049;28;20268;-61
2022/08/03 09:07:36;;;;;;;6.15;2.35;;;;;;;;;;5032805;28;20214;-61
2022/08/03 09:10:03;;;;;;;5.05;1.83;;;;;;;;;;5032797;28;20213;-61
2022/08/03 09:12:30;;;;;;;3.72;1.90;;;;;;;;;;5032376;28;20221;-61
2022/08/03 09:14:57;;;;;;;2.05;1.95;;;;;;;;;;5032747;28;20239;-61
2022/08/03 09:17:23;;;;;;;5.95;2.08;;;;;;;;;;5031998;28;20250;-61
2022/08/03 09:20:04;;;;;;;2.22;1.85;;;;;;;;;;5033015;28;20520;-61
2022/08/03 09:22:32;;;;;;;3.97;1.65;;;;;;;;;;5033042;28;20266;-61
2022/08/03 09:24:59;;;;;;;1.92;1.63;;;;;;;;;;5032780;27;20304;-62
2022/08/03 09:27:26;;;;;;;6.57;4.65;;;;;;;;;;5032643;28;20553;-62
2022/08/03 09:29:54;;;;;;;5.80;2.97;;;;;;;;;;5033217;28;20227;-61
2022/08/03 09:32:21;;;;;;;3.70;1.80;;;;;;;;;;5032619;28;20220;-61
2022/08/03 09:34:47;;;;;;;3.80;1.50;;;;;;;;;;5032726;28;20213;-61
2022/08/03 09:37:14;;;;;;;4.57;1.30;;;;;;;;;;5033179;28;20605;-61
2022/08/03 09:39:40;;;;;;;4.80;1.58;;;;;;;;;;5033214;28;20225;-61
2022/08/03 09:42:07;;;;;;;3.97;1.73;;;;;;;;;;5032177;27;20221;-62
2022/08/03 09:44:34;;;;;;;2.50;1.38;;;;;;;;;;5032369;28;20254;-61
2022/08/03 09:47:02;;;;;;;1.50;1.40;;;;;;;;;;5032866;28;20213;-62
2022/08/03 09:49:28;;;;;;;1.25;1.20;;;;;;;;;;5032992;28;20409;-62
2022/08/03 09:51:54;;;;;;;2.42;1.42;;;;;;;;;;5039087;27;20202;-61
2022/08/03 09:54:27;;;;;;;4.10;1.05;;;;;;;;;;5032248;28;20221;-61
2022/08/03 09:56:53;;;;;;;1.00;1.00;;;;;;;;;;5032700;28;20233;-61
2022/08/03 09:59:23;;;;;;;1.35;1.27;;;;;;;;;;5032278;28;20220;-62
2022/08/03 10:01:50;;;;;;;1.00;1.00;;;;;;;;;;5032534;28;20221;-62
2022/08/03 10:04:17;;;;;;;1.08;1.08;;;;;;;;;;5031968;28;20205;-62
2022/08/03 10:06:44;;;;;;;1.20;1.20;;;;;;;;;;5032358;28;20266;-62
2022/08/03 10:09:12;;;;;;;4.05;1.20;;;;;;;;;;5032660;28;20217;-60
2022/08/03 10:11:39;;;;;;;1.10;1.10;;;;;;;;;;5032424;27;20213;-62
2022/08/03 10:14:06;;;;;;;2.22;1.40;;;;;;;;;;5031848;28;20395;-63
2022/08/03 10:16:36;;;;;;;3.15;1.20;;;;;;;;;;5032303;28;20254;-62
2022/08/03 10:19:04;;;;;;;1.40;1.30;;;;;;;;;;5032868;28;20253;-60
2022/08/03 10:21:33;;;;;;;1.20;1.20;;;;;;;;;;5032537;28;20221;-60
2022/08/03 10:24:00;;;;;;;1.10;1.10;;;;;;;;;;5032483;28;20213;-62
2022/08/03 10:26:27;;;;;;;1.85;1.30;;;;;;;;;;5032132;28;20209;-60
2022/08/03 10:28:53;;;;;;;1.60;1.48;;;;;;;;;;5032331;28;20242;-61
2022/08/03 10:31:20;;;;;;;2.50;1.20;;;;;;;;;;5032277;28;20213;-59
2022/08/03 10:33:49;;;;;;;2.25;1.10;;;;;;;;;;5032099;28;20224;-60
2022/08/03 10:36:16;;;;;;;2.88;1.40;;;;;;;;;;5031781;28;20283;-60
2022/08/03 10:38:51;;;;;;;2.70;1.13;;;;;;;;;;5032702;28;20233;-60
2022/08/03 10:41:19;;;;;;;1.55;1.55;;;;;;;;;;5028746;28;20304;-59
2022/08/03 10:43:47;;;;;;;2.45;1.25;;;;;;;;;;5031136;28;20241;-60
2022/08/03 10:46:14;;;;;;;4.00;1.00;;;;;;;;;;5031739;28;20617;-60
2022/08/03 10:48:40;;;;;;;1.20;1.10;;;;;;;;;;5031688;28;20240;-62
2022/08/03 10:51:06;;;;;;;1.30;1.20;;;;;;;;;;5031706;28;20213;-59
2022/08/03 10:53:36;;;;;;;2.22;0.93;;;;;;;;;;5031224;28;20228;-59
2022/08/03 10:58:49;;;;;;;1.40;1.40;;;;;;;;;;5031917;28;20559;-59
2022/08/03 11:01:16;;;;;;;1.08;1.08;;;;;;;;;;5031656;28;20213;-59
2022/08/03 11:04:01;;;;;;;1.00;1.00;;;;;;;;;;5027717;28;20225;-60
2022/08/03 11:06:28;;;;;;;1.00;1.00;;;;;;;;;;5031007;28;20236;-60
2022/08/03 11:09:15;;;;;;;1.10;1.10;;;;;;;;;;5031641;28;20255;-60
2022/08/03 11:11:43;;;;;;;1.00;1.00;;;;;;;;;;5032006;28;20235;-62
2022/08/03 11:14:11;;;;;;;1.73;1.33;;;;;;;;;;5031343;28;20217;-62
2022/08/03 11:16:39;;;;;;;1.75;1.10;;;;;;;;;;5031572;28;20305;-61
2022/08/03 11:19:06;;;;;;;1.95;1.40;;;;;;;;;;5051278;27;20229;-61
2022/08/03 11:21:52;;;;;;;1.85;1.00;;;;;;;;;;5031416;28;20464;-59
2022/08/03 11:24:33;;;;;;;1.30;1.00;;;;;;;;;;5031640;28;20430;-59
2022/08/03 11:27:14;;;;;;;1.23;1.20;;;;;;;;;;5031131;28;20228;-59
2022/08/03 11:29:53;;;;;;;1.10;1.10;;;;;;;;;;5032713;28;20227;-59
2022/08/03 11:32:34;;;;;;;3.33;1.20;;;;;;;;;;5031159;28;20435;-59
2022/08/03 11:35:08;;;;;;;1.83;1.10;;;;;;;;;;5030890;28;20220;-59
2022/08/03 11:37:34;;;;;;;1.20;1.20;;;;;;;;;;5030667;28;20228;-60
2022/08/03 11:40:00;;;;;;;1.13;1.13;;;;;;;;;;5030579;28;20224;-61
2022/08/03 11:42:47;;;;;;;1.20;1.20;;;;;;;;;;5030972;28;20258;-58
2022/08/03 11:45:14;;;;;;;1.27;1.27;;;;;;;;;;5031838;28;20266;-59
2022/08/03 11:47:41;;;;;;;1.25;1.20;;;;;;;;;;5031617;28;20209;-59
2022/08/03 11:50:08;;;;;;;1.60;1.40;;;;;;;;;;5030665;28;20551;-59
2022/08/03 11:52:35;;;;;;;1.95;1.05;;;;;;;;;;5031189;28;20467;-59
2022/08/03 11:55:02;;;;;;;3.97;1.50;;;;;;;;;;5030572;28;20281;-58
2022/08/03 11:57:29;;;;;;;1.65;1.30;;;;;;;;;;5030686;28;20493;-59
2022/08/03 11:59:55;;;;;;;2.00;1.40;;;;;;;;;;5032368;28;20209;-58
2022/08/03 12:02:23;;;;;;;1.85;1.00;;;;;;;;;;5031057;28;20416;-58
2022/08/03 12:04:49;;;;;;;1.75;1.45;;;;;;;;;;5030699;28;20229;-63
2022/08/03 12:07:16;;;;;;;36.38;31.02;;;;;;;;;;5034167;28;20540;-59
2022/08/03 12:09:42;;;;;;;16.10;14.25;;;;;;;;;;5034787;28;20245;-59
2022/08/03 12:12:09;;;;;;;2.83;2.65;;;;;;;;;;5034276;28;20220;-59
2022/08/03 12:14:35;;;;;;;22.17;17.85;;;;;;;;;;5033419;28;20245;-61
2022/08/03 12:17:01;;;;;;;18.52;16.52;;;;;;;;;;5033340;28;20213;-61
2022/08/03 12:19:41;;;;;;;11.38;10.27;;;;;;;;;;5054302;27;20607;-59
2022/08/03 12:22:07;;;;;;;7.03;6.43;;;;;;;;;;5033522;28;20696;-60
2022/08/03 12:24:39;;;;;;;2.13;2.03;;;;;;;;;;5033609;28;20532;-59
2022/08/03 12:27:06;;;;;;;3.17;3.05;;;;;;;;;;5033824;28;20222;-61
2022/08/03 12:29:32;;;;;;;7.45;2.95;;;;;;;;;;5034301;28;20512;-61
2022/08/03 12:31:58;;;;;;;1.50;1.40;;;;;;;;;;5033172;28;20274;-62
2022/08/03 12:34:44;;;;;;;1.60;1.23;;;;;;;;;;5033463;28;20217;-60
2022/08/03 12:37:12;;;;;;;1.42;1.40;;;;;;;;;;5033214;28;20213;-59
2022/08/03 12:39:38;;;;;;;4.70;1.40;;;;;;;;;;5033390;28;20553;-59
2022/08/03 12:42:04;;;;;;;4.70;2.00;;;;;;;;;;5033503;28;20279;-61
2022/08/03 12:44:31;;;;;;;6.13;1.40;;;;;;;;;;5033401;28;20219;-60
2022/08/03 12:46:58;;;;;;;1.75;1.42;;;;;;;;;;5033096;28;20213;-60
2022/08/03 12:49:24;;;;;;;1.73;1.63;;;;;;;;;;5033443;28;20209;-60
2022/08/03 12:51:58;;;;;;;3.00;1.20;;;;;;;;;;5033043;28;20220;-60
2022/08/03 12:54:26;;;;;;;1.27;1.00;;;;;;;;;;5033383;28;20338;-61
2022/08/03 12:57:00;;;;;;;1.10;1.00;;;;;;;;;;5033156;28;20405;-61
2022/08/03 12:59:27;;;;;;;1.33;1.23;;;;;;;;;;5033061;28;20249;-61
2022/08/03 13:01:53;;;;;;;1.40;1.40;;;;;;;;;;5033135;28;20233;-61
2022/08/03 13:04:25;;;;;;;2.70;2.60;;;;;;;;;;5032867;28;20284;-61
2022/08/03 13:06:56;;;;;;;1.67;1.55;;;;;;;;;;5032773;28;20232;-60
2022/08/03 13:09:25;;;;;;;1.45;1.45;;;;;;;;;;5032373;28;20201;-60
2022/08/03 13:12:06;;;;;;;2.95;1.00;;;;;;;;;;5033140;28;20216;-60
2022/08/03 13:14:32;;;;;;;2.33;2.00;;;;;;;;;;5032204;28;20244;-68
2022/08/03 13:16:59;;;;;;;1.40;1.30;;;;;;;;;;5032335;28;20213;-68
2022/08/03 13:19:25;;;;;;;2.40;2.20;;;;;;;;;;5053835;27;20542;-68
2022/08/03 13:21:51;;;;;;;1.23;1.23;;;;;;;;;;5032523;28;20593;-68
2022/08/03 13:24:17;;;;;;;5.47;1.60;;;;;;;;;;5031833;28;20235;-68
2022/08/03 13:26:44;;;;;;;1.70;1.45;;;;;;;;;;5032945;28;20206;-68
2022/08/03 13:29:11;;;;;;;5.35;1.20;;;;;;;;;;5032526;28;20254;-68
2022/08/03 13:31:38;;;;;;;2.70;2.60;;;;;;;;;;5032984;28;20431;-67
2022/08/03 13:34:04;;;;;;;2.70;1.48;;;;;;;;;;5032434;28;20436;-69
2022/08/03 13:36:30;;;;;;;1.05;1.05;;;;;;;;;;5032632;28;20417;-69
2022/08/03 13:38:56;;;;;;;3.42;1.85;;;;;;;;;;5032351;28;20474;-69
2022/08/03 13:41:23;;;;;;;0.98;0.98;;;;;;;;;;5032299;28;20297;-69
2022/08/03 13:43:49;;;;;;;1.30;1.30;;;;;;;;;;5032391;28;20217;-69
2022/08/03 13:46:16;;;;;;;2.42;1.15;;;;;;;;;;5032623;28;20217;-68
2022/08/03 13:48:43;;;;;;;3.50;0.90;;;;;;;;;;5028720;28;20521;-69
2022/08/03 13:51:09;;;;;;;1.98;1.05;;;;;;;;;;5032119;28;20453;-68
2022/08/03 13:53:35;;;;;;;3.72;1.00;;;;;;;;;;5031956;28;20226;-68
2022/08/03 13:56:01;;;;;;;1.40;1.13;;;;;;;;;;5031678;28;20284;-68
2022/08/03 13:58:28;;;;;;;1.00;1.00;;;;;;;;;;5032168;28;20274;-69
2022/08/03 14:00:54;;;;;;;1.85;1.10;;;;;;;;;;5031742;28;20221;-69
2022/08/03 14:03:22;;;;;;;1.33;1.23;;;;;;;;;;5031793;28;20214;-69
2022/08/03 14:05:48;;;;;;;2.25;1.27;;;;;;;;;;5031596;28;20229;-68
2022/08/03 14:08:14;;;;;;;1.17;1.17;;;;;;;;;;5032266;28;20385;-68
2022/08/03 14:10:42;;;;;;;1.00;0.95;;;;;;;;;;5031954;28;20213;-69
2022/08/03 14:13:10;;;;;;;1.00;1.00;;;;;;;;;;5031523;28;20519;-68
2022/08/03 14:15:36;;;;;;;1.65;1.20;;;;;;;;;;5031667;28;20514;-69
2022/08/03 14:18:02;;;;;;;1.20;1.20;;;;;;;;;;5042699;27;20225;-69
2022/08/03 14:20:30;;;;;;;0.90;0.90;;;;;;;;;;5040405;27;20528;-68
2022/08/03 14:22:56;;;;;;;2.25;1.02;;;;;;;;;;5031746;28;20221;-68
2022/08/03 14:25:22;;;;;;;2.03;0.85;;;;;;;;;;5031617;28;20216;-68
2022/08/03 14:27:49;;;;;;;2.05;1.00;;;;;;;;;;5030655;28;20213;-68
2022/08/03 14:30:15;;;;;;;0.85;0.85;;;;;;;;;;5031657;28;20509;-69
2022/08/03 14:32:41;;;;;;;2.65;1.00;;;;;;;;;;5031988;28;20213;-68
2022/08/03 14:35:08;;;;;;;2.60;1.20;;;;;;;;;;5031106;28;20308;-69
2022/08/03 14:37:36;;;;;;;1.98;1.05;;;;;;;;;;5031898;28;20213;-68
2022/08/03 14:40:02;;;;;;;1.95;1.10;;;;;;;;;;5031707;28;20482;-69
2022/08/03 14:42:28;;;;;;;4.38;1.10;;;;;;;;;;5031706;28;20213;-69
2022/08/03 14:44:55;;;;;;;1.20;1.10;;;;;;;;;;5031235;28;20575;-69
2022/08/03 14:47:21;;;;;;;1.20;1.10;;;;;;;;;;5031354;28;20213;-68
2022/08/03 14:49:47;;;;;;;0.82;0.80;;;;;;;;;;5031589;28;20412;-69
2022/08/03 14:52:13;;;;;;;0.98;0.98;;;;;;;;;;5032359;28;20258;-69
2022/08/03 14:54:41;;;;;;;2.50;0.93;;;;;;;;;;5030981;28;20225;-69